sensor_id;sensor_type;location;lat;lon;timestamp;P1;durP1;ratioP1;P2;durP2;ratioP2
11988;SDS011;6054;50.966;7.094;2023-05-07T00:01:38;4.68;;;2.58;;
11988;SDS011;6054;50.966;7.094;2023-05-07T00:04:05;3.08;;;1.90;;
11988;SDS011;6054;50.966;7.094;2023-05-07T00:06:32;2.33;;;1.85;;
11988;SDS011;6054;50.966;7.094;2023-05-07T00:09:00;6.47;;;1.80;;
11988;SDS011;6054;50.966;7.094;2023-05-07T00:11:27;3.58;;;1.75;;
11988;SDS011;6054;50.966;7.094;2023-05-07T00:13:54;3.97;;;1.80;;
11988;SDS011;6054;50.966;7.094;2023-05-07T00:16:21;5.03;;;2.17;;
11988;SDS011;6054;50.966;7.094;2023-05-07T00:18:47;4.03;;;1.90;;
11988;SDS011;6054;50.966;7.094;2023-05-07T00:21:15;4.65;;;2.13;;
11988;SDS011;6054;50.966;7.094;2023-05-07T00:23:42;3.83;;;2.00;;
11988;SDS011;6054;50.966;7.094;2023-05-07T00:26:10;5.30;;;2.05;;
11988;SDS011;6054;50.966;7.094;2023-05-07T00:28:36;2.60;;;1.90;;
11988;SDS011;6054;50.966;7.094;2023-05-07T00:31:03;5.03;;;1.75;;
11988;SDS011;6054;50.966;7.094;2023-05-07T00:33:30;3.95;;;1.90;;
11988;SDS011;6054;50.966;7.094;2023-05-07T00:35:57;2.67;;;2.13;;
11988;SDS011;6054;50.966;7.094;2023-05-07T00:38:25;5.45;;;2.15;;
11988;SDS011;6054;50.966;7.094;2023-05-07T00:40:52;3.47;;;2.10;;
11988;SDS011;6054;50.966;7.094;2023-05-07T00:43:20;2.55;;;2.10;;
11988;SDS011;6054;50.966;7.094;2023-05-07T00:45:47;2.40;;;2.28;;
11988;SDS011;6054;50.966;7.094;2023-05-07T00:48:15;3.92;;;2.30;;
11988;SDS011;6054;50.966;7.094;2023-05-07T00:50:42;3.10;;;2.90;;
11988;SDS011;6054;50.966;7.094;2023-05-07T00:53:09;2.80;;;2.10;;
11988;SDS011;6054;50.966;7.094;2023-05-07T00:55:36;3.88;;;2.50;;
11988;SDS011;6054;50.966;7.094;2023-05-07T00:58:03;7.10;;;2.72;;
11988;SDS011;6054;50.966;7.094;2023-05-07T01:00:32;2.83;;;2.20;;
11988;SDS011;6054;50.966;7.094;2023-05-07T01:02:58;2.28;;;2.00;;
11988;SDS011;6054;50.966;7.094;2023-05-07T01:05:25;3.40;;;2.10;;
11988;SDS011;6054;50.966;7.094;2023-05-07T01:07:54;3.22;;;2.00;;
11988;SDS011;6054;50.966;7.094;2023-05-07T01:10:22;5.88;;;2.05;;
11988;SDS011;6054;50.966;7.094;2023-05-07T01:12:50;1.83;;;1.70;;
11988;SDS011;6054;50.966;7.094;2023-05-07T01:15:18;2.33;;;2.20;;
11988;SDS011;6054;50.966;7.094;2023-05-07T01:17:46;7.00;;;2.03;;
11988;SDS011;6054;50.966;7.094;2023-05-07T01:20:13;2.08;;;1.98;;
11988;SDS011;6054;50.966;7.094;2023-05-07T01:22:42;2.80;;;2.42;;
11988;SDS011;6054;50.966;7.094;2023-05-07T01:25:09;2.25;;;2.05;;
11988;SDS011;6054;50.966;7.094;2023-05-07T01:27:36;2.50;;;2.30;;
11988;SDS011;6054;50.966;7.094;2023-05-07T01:30:03;6.35;;;2.03;;
11988;SDS011;6054;50.966;7.094;2023-05-07T01:32:33;4.25;;;1.85;;
11988;SDS011;6054;50.966;7.094;2023-05-07T01:35:05;1.80;;;1.70;;
11988;SDS011;6054;50.966;7.094;2023-05-07T01:37:35;2.30;;;2.10;;
11988;SDS011;6054;50.966;7.094;2023-05-07T01:40:05;6.75;;;1.90;;
11988;SDS011;6054;50.966;7.094;2023-05-07T01:42:33;2.25;;;1.70;;
11988;SDS011;6054;50.966;7.094;2023-05-07T01:45:00;2.90;;;1.60;;
11988;SDS011;6054;50.966;7.094;2023-05-07T01:47:26;5.55;;;2.00;;
11988;SDS011;6054;50.966;7.094;2023-05-07T01:49:54;5.10;;;1.63;;
11988;SDS011;6054;50.966;7.094;2023-05-07T01:52:22;2.03;;;1.92;;
11988;SDS011;6054;50.966;7.094;2023-05-07T01:54:50;2.25;;;1.95;;
11988;SDS011;6054;50.966;7.094;2023-05-07T01:57:18;2.03;;;1.90;;
11988;SDS011;6054;50.966;7.094;2023-05-07T01:59:45;5.28;;;3.05;;
11988;SDS011;6054;50.966;7.094;2023-05-07T02:02:11;2.63;;;1.83;;
11988;SDS011;6054;50.966;7.094;2023-05-07T02:04:38;3.28;;;1.63;;
11988;SDS011;6054;50.966;7.094;2023-05-07T02:07:05;1.67;;;1.58;;
11988;SDS011;6054;50.966;7.094;2023-05-07T02:09:31;2.38;;;1.83;;
11988;SDS011;6054;50.966;7.094;2023-05-07T02:11:58;2.53;;;1.90;;
11988;SDS011;6054;50.966;7.094;2023-05-07T02:14:26;1.75;;;1.65;;
11988;SDS011;6054;50.966;7.094;2023-05-07T02:16:53;5.07;;;1.92;;
11988;SDS011;6054;50.966;7.094;2023-05-07T02:19:20;2.85;;;1.75;;
11988;SDS011;6054;50.966;7.094;2023-05-07T02:21:47;4.80;;;1.70;;
11988;SDS011;6054;50.966;7.094;2023-05-07T02:24:13;4.60;;;1.50;;
11988;SDS011;6054;50.966;7.094;2023-05-07T02:26:40;4.15;;;1.85;;
11988;SDS011;6054;50.966;7.094;2023-05-07T02:29:07;9.63;;;1.92;;
11988;SDS011;6054;50.966;7.094;2023-05-07T02:31:35;1.80;;;1.45;;
11988;SDS011;6054;50.966;7.094;2023-05-07T02:34:02;4.43;;;1.70;;
11988;SDS011;6054;50.966;7.094;2023-05-07T02:36:29;2.90;;;1.83;;
11988;SDS011;6054;50.966;7.094;2023-05-07T02:38:55;2.95;;;2.28;;
11988;SDS011;6054;50.966;7.094;2023-05-07T02:41:22;5.10;;;1.92;;
11988;SDS011;6054;50.966;7.094;2023-05-07T02:43:49;1.80;;;1.70;;
11988;SDS011;6054;50.966;7.094;2023-05-07T02:46:16;6.32;;;1.70;;
11988;SDS011;6054;50.966;7.094;2023-05-07T02:48:44;2.15;;;1.60;;
11988;SDS011;6054;50.966;7.094;2023-05-07T02:51:10;1.45;;;1.30;;
11988;SDS011;6054;50.966;7.094;2023-05-07T02:53:37;2.17;;;1.90;;
11988;SDS011;6054;50.966;7.094;2023-05-07T02:56:04;3.28;;;1.55;;
11988;SDS011;6054;50.966;7.094;2023-05-07T02:58:32;5.18;;;1.70;;
11988;SDS011;6054;50.966;7.094;2023-05-07T03:00:58;2.15;;;1.70;;
11988;SDS011;6054;50.966;7.094;2023-05-07T03:03:25;4.28;;;1.70;;
11988;SDS011;6054;50.966;7.094;2023-05-07T03:05:53;4.40;;;1.65;;
11988;SDS011;6054;50.966;7.094;2023-05-07T03:08:20;1.83;;;1.65;;
11988;SDS011;6054;50.966;7.094;2023-05-07T03:10:47;1.98;;;1.55;;
11988;SDS011;6054;50.966;7.094;2023-05-07T03:13:14;1.80;;;1.70;;
11988;SDS011;6054;50.966;7.094;2023-05-07T03:15:41;1.90;;;1.67;;
11988;SDS011;6054;50.966;7.094;2023-05-07T03:18:07;1.98;;;1.73;;
11988;SDS011;6054;50.966;7.094;2023-05-07T03:20:34;3.13;;;1.70;;
11988;SDS011;6054;50.966;7.094;2023-05-07T03:23:03;2.42;;;1.52;;
11988;SDS011;6054;50.966;7.094;2023-05-07T03:25:29;4.30;;;1.60;;
11988;SDS011;6054;50.966;7.094;2023-05-07T03:27:56;2.47;;;1.50;;
11988;SDS011;6054;50.966;7.094;2023-05-07T03:30:23;3.42;;;1.63;;
11988;SDS011;6054;50.966;7.094;2023-05-07T03:32:50;3.63;;;1.50;;
11988;SDS011;6054;50.966;7.094;2023-05-07T03:35:17;3.30;;;1.60;;
11988;SDS011;6054;50.966;7.094;2023-05-07T03:37:43;1.50;;;1.40;;
11988;SDS011;6054;50.966;7.094;2023-05-07T03:40:12;1.45;;;1.35;;
11988;SDS011;6054;50.966;7.094;2023-05-07T03:42:39;2.63;;;1.50;;
11988;SDS011;6054;50.966;7.094;2023-05-07T03:45:06;1.90;;;1.80;;
11988;SDS011;6054;50.966;7.094;2023-05-07T03:47:34;2.55;;;1.45;;
11988;SDS011;6054;50.966;7.094;2023-05-07T03:50:00;2.53;;;1.67;;
11988;SDS011;6054;50.966;7.094;2023-05-07T03:52:27;2.17;;;1.67;;
11988;SDS011;6054;50.966;7.094;2023-05-07T03:54:54;2.85;;;1.58;;
11988;SDS011;6054;50.966;7.094;2023-05-07T03:57:22;2.60;;;1.73;;
11988;SDS011;6054;50.966;7.094;2023-05-07T03:59:48;2.30;;;1.50;;
11988;SDS011;6054;50.966;7.094;2023-05-07T04:02:15;3.15;;;1.60;;
11988;SDS011;6054;50.966;7.094;2023-05-07T04:04:42;1.40;;;1.40;;
11988;SDS011;6054;50.966;7.094;2023-05-07T04:07:09;1.77;;;1.67;;
11988;SDS011;6054;50.966;7.094;2023-05-07T04:09:35;2.03;;;1.42;;
11988;SDS011;6054;50.966;7.094;2023-05-07T04:12:02;2.00;;;1.55;;
11988;SDS011;6054;50.966;7.094;2023-05-07T04:14:31;2.22;;;1.50;;
11988;SDS011;6054;50.966;7.094;2023-05-07T04:16:58;4.22;;;1.73;;
11988;SDS011;6054;50.966;7.094;2023-05-07T04:19:24;3.97;;;1.60;;
11988;SDS011;6054;50.966;7.094;2023-05-07T04:21:51;2.25;;;1.52;;
11988;SDS011;6054;50.966;7.094;2023-05-07T04:24:18;4.10;;;1.48;;
11988;SDS011;6054;50.966;7.094;2023-05-07T04:26:45;1.65;;;1.55;;
11988;SDS011;6054;50.966;7.094;2023-05-07T04:29:11;1.80;;;1.42;;
11988;SDS011;6054;50.966;7.094;2023-05-07T04:31:39;1.85;;;1.63;;
11988;SDS011;6054;50.966;7.094;2023-05-07T04:34:09;2.92;;;1.30;;
11988;SDS011;6054;50.966;7.094;2023-05-07T04:36:36;4.63;;;1.50;;
11988;SDS011;6054;50.966;7.094;2023-05-07T04:39:03;1.55;;;1.40;;
11988;SDS011;6054;50.966;7.094;2023-05-07T04:41:30;1.95;;;1.50;;
11988;SDS011;6054;50.966;7.094;2023-05-07T04:43:57;2.55;;;1.60;;
11988;SDS011;6054;50.966;7.094;2023-05-07T04:46:24;1.45;;;1.30;;
11988;SDS011;6054;50.966;7.094;2023-05-07T04:48:52;5.47;;;1.98;;
11988;SDS011;6054;50.966;7.094;2023-05-07T04:51:19;2.25;;;1.50;;
11988;SDS011;6054;50.966;7.094;2023-05-07T04:53:46;2.45;;;1.60;;
11988;SDS011;6054;50.966;7.094;2023-05-07T04:56:13;3.05;;;1.60;;
11988;SDS011;6054;50.966;7.094;2023-05-07T04:58:39;1.75;;;1.60;;
11988;SDS011;6054;50.966;7.094;2023-05-07T05:01:06;3.53;;;1.83;;
11988;SDS011;6054;50.966;7.094;2023-05-07T05:03:33;4.85;;;2.20;;
11988;SDS011;6054;50.966;7.094;2023-05-07T05:06:01;3.33;;;1.70;;
11988;SDS011;6054;50.966;7.094;2023-05-07T05:08:28;2.60;;;1.33;;
11988;SDS011;6054;50.966;7.094;2023-05-07T05:10:56;2.97;;;1.58;;
11988;SDS011;6054;50.966;7.094;2023-05-07T05:13:23;2.13;;;1.60;;
11988;SDS011;6054;50.966;7.094;2023-05-07T05:15:49;5.82;;;1.63;;
11988;SDS011;6054;50.966;7.094;2023-05-07T05:18:16;1.77;;;1.67;;
11988;SDS011;6054;50.966;7.094;2023-05-07T05:20:43;2.22;;;1.52;;
11988;SDS011;6054;50.966;7.094;2023-05-07T05:23:11;1.98;;;1.88;;
11988;SDS011;6054;50.966;7.094;2023-05-07T05:25:38;1.90;;;1.70;;
11988;SDS011;6054;50.966;7.094;2023-05-07T05:28:05;1.85;;;1.42;;
11988;SDS011;6054;50.966;7.094;2023-05-07T05:30:32;3.42;;;1.73;;
11988;SDS011;6054;50.966;7.094;2023-05-07T05:32:58;3.63;;;1.85;;
11988;SDS011;6054;50.966;7.094;2023-05-07T05:35:25;3.05;;;1.80;;
11988;SDS011;6054;50.966;7.094;2023-05-07T05:37:52;1.65;;;1.52;;
11988;SDS011;6054;50.966;7.094;2023-05-07T05:40:20;3.35;;;1.70;;
11988;SDS011;6054;50.966;7.094;2023-05-07T05:42:47;2.15;;;1.60;;
11988;SDS011;6054;50.966;7.094;2023-05-07T05:45:13;3.05;;;1.70;;
11988;SDS011;6054;50.966;7.094;2023-05-07T05:47:41;2.03;;;1.73;;
11988;SDS011;6054;50.966;7.094;2023-05-07T05:50:07;5.32;;;1.80;;
11988;SDS011;6054;50.966;7.094;2023-05-07T05:52:34;2.28;;;1.58;;
11988;SDS011;6054;50.966;7.094;2023-05-07T05:55:01;1.92;;;1.80;;
11988;SDS011;6054;50.966;7.094;2023-05-07T05:57:29;8.65;;;1.83;;
11988;SDS011;6054;50.966;7.094;2023-05-07T05:59:56;4.40;;;1.80;;
11988;SDS011;6054;50.966;7.094;2023-05-07T06:02:23;2.00;;;1.90;;
11988;SDS011;6054;50.966;7.094;2023-05-07T06:04:50;2.08;;;1.50;;
11988;SDS011;6054;50.966;7.094;2023-05-07T06:07:17;2.67;;;1.58;;
11988;SDS011;6054;50.966;7.094;2023-05-07T06:09:43;1.70;;;1.60;;
11988;SDS011;6054;50.966;7.094;2023-05-07T06:12:10;2.95;;;1.80;;
11988;SDS011;6054;50.966;7.094;2023-05-07T06:14:39;2.33;;;1.80;;
11988;SDS011;6054;50.966;7.094;2023-05-07T06:17:05;3.00;;;1.80;;
11988;SDS011;6054;50.966;7.094;2023-05-07T06:19:32;2.30;;;1.70;;
11988;SDS011;6054;50.966;7.094;2023-05-07T06:22:00;1.40;;;1.30;;
11988;SDS011;6054;50.966;7.094;2023-05-07T06:24:27;2.03;;;1.90;;
11988;SDS011;6054;50.966;7.094;2023-05-07T06:26:54;1.80;;;1.70;;
11988;SDS011;6054;50.966;7.094;2023-05-07T06:29:23;2.92;;;1.77;;
11988;SDS011;6054;50.966;7.094;2023-05-07T06:31:52;2.85;;;1.52;;
11988;SDS011;6054;50.966;7.094;2023-05-07T06:34:19;1.98;;;1.80;;
11988;SDS011;6054;50.966;7.094;2023-05-07T06:36:45;1.98;;;1.75;;
11988;SDS011;6054;50.966;7.094;2023-05-07T06:39:12;4.75;;;1.73;;
11988;SDS011;6054;50.966;7.094;2023-05-07T06:41:39;3.05;;;1.50;;
11988;SDS011;6054;50.966;7.094;2023-05-07T06:44:05;4.88;;;1.73;;
11988;SDS011;6054;50.966;7.094;2023-05-07T06:46:32;8.02;;;6.50;;
11988;SDS011;6054;50.966;7.094;2023-05-07T06:49:00;2.78;;;1.80;;
11988;SDS011;6054;50.966;7.094;2023-05-07T06:51:27;2.28;;;1.77;;
11988;SDS011;6054;50.966;7.094;2023-05-07T06:53:55;3.67;;;1.80;;
11988;SDS011;6054;50.966;7.094;2023-05-07T06:56:21;4.15;;;1.70;;
11988;SDS011;6054;50.966;7.094;2023-05-07T06:58:48;1.52;;;1.42;;
11988;SDS011;6054;50.966;7.094;2023-05-07T07:01:15;5.00;;;1.90;;
11988;SDS011;6054;50.966;7.094;2023-05-07T07:03:42;2.45;;;1.67;;
11988;SDS011;6054;50.966;7.094;2023-05-07T07:06:10;2.50;;;1.75;;
11988;SDS011;6054;50.966;7.094;2023-05-07T07:08:36;1.85;;;1.55;;
11988;SDS011;6054;50.966;7.094;2023-05-07T07:11:04;2.25;;;1.60;;
11988;SDS011;6054;50.966;7.094;2023-05-07T07:13:30;3.55;;;1.88;;
11988;SDS011;6054;50.966;7.094;2023-05-07T07:15:57;2.65;;;1.77;;
11988;SDS011;6054;50.966;7.094;2023-05-07T07:18:24;2.63;;;1.55;;
11988;SDS011;6054;50.966;7.094;2023-05-07T07:20:51;1.70;;;1.60;;
11988;SDS011;6054;50.966;7.094;2023-05-07T07:23:19;6.32;;;1.60;;
11988;SDS011;6054;50.966;7.094;2023-05-07T07:25:45;4.22;;;1.50;;
11988;SDS011;6054;50.966;7.094;2023-05-07T07:28:12;1.98;;;1.25;;
11988;SDS011;6054;50.966;7.094;2023-05-07T07:30:39;3.10;;;1.40;;
11988;SDS011;6054;50.966;7.094;2023-05-07T07:33:06;5.35;;;1.40;;
11988;SDS011;6054;50.966;7.094;2023-05-07T07:35:32;2.30;;;1.40;;
11988;SDS011;6054;50.966;7.094;2023-05-07T07:37:59;2.45;;;1.30;;
11988;SDS011;6054;50.966;7.094;2023-05-07T07:40:27;1.98;;;1.23;;
11988;SDS011;6054;50.966;7.094;2023-05-07T07:42:54;1.25;;;1.25;;
11988;SDS011;6054;50.966;7.094;2023-05-07T07:45:22;2.10;;;1.38;;
11988;SDS011;6054;50.966;7.094;2023-05-07T07:47:49;1.77;;;1.55;;
11988;SDS011;6054;50.966;7.094;2023-05-07T07:50:16;2.95;;;1.40;;
11988;SDS011;6054;50.966;7.094;2023-05-07T07:52:43;2.50;;;1.35;;
11988;SDS011;6054;50.966;7.094;2023-05-07T07:55:10;4.20;;;1.65;;
11988;SDS011;6054;50.966;7.094;2023-05-07T07:57:38;1.33;;;1.20;;
11988;SDS011;6054;50.966;7.094;2023-05-07T08:00:05;5.25;;;1.35;;
11988;SDS011;6054;50.966;7.094;2023-05-07T08:02:33;1.38;;;1.27;;
11988;SDS011;6054;50.966;7.094;2023-05-07T08:04:59;2.15;;;1.63;;
11988;SDS011;6054;50.966;7.094;2023-05-07T08:07:26;6.70;;;1.50;;
11988;SDS011;6054;50.966;7.094;2023-05-07T08:09:53;1.23;;;1.20;;
11988;SDS011;6054;50.966;7.094;2023-05-07T08:12:19;1.80;;;1.27;;
11988;SDS011;6054;50.966;7.094;2023-05-07T08:14:48;3.80;;;1.80;;
11988;SDS011;6054;50.966;7.094;2023-05-07T08:17:14;2.03;;;1.35;;
11988;SDS011;6054;50.966;7.094;2023-05-07T08:19:41;3.95;;;1.40;;
11988;SDS011;6054;50.966;7.094;2023-05-07T08:22:08;1.48;;;1.33;;
11988;SDS011;6054;50.966;7.094;2023-05-07T08:24:35;1.38;;;1.17;;
11988;SDS011;6054;50.966;7.094;2023-05-07T08:27:02;3.03;;;1.45;;
11988;SDS011;6054;50.966;7.094;2023-05-07T08:29:29;3.20;;;1.38;;
11988;SDS011;6054;50.966;7.094;2023-05-07T08:31:57;4.32;;;1.40;;
11988;SDS011;6054;50.966;7.094;2023-05-07T08:34:24;2.38;;;1.50;;
11988;SDS011;6054;50.966;7.094;2023-05-07T08:36:50;4.63;;;1.50;;
11988;SDS011;6054;50.966;7.094;2023-05-07T08:39:17;1.00;;;1.00;;
11988;SDS011;6054;50.966;7.094;2023-05-07T08:41:44;2.13;;;1.40;;
11988;SDS011;6054;50.966;7.094;2023-05-07T08:44:12;1.13;;;1.08;;
11988;SDS011;6054;50.966;7.094;2023-05-07T08:46:40;2.90;;;1.20;;
11988;SDS011;6054;50.966;7.094;2023-05-07T08:49:09;1.33;;;1.25;;
11988;SDS011;6054;50.966;7.094;2023-05-07T08:51:36;1.25;;;1.15;;
11988;SDS011;6054;50.966;7.094;2023-05-07T08:54:03;3.10;;;1.63;;
11988;SDS011;6054;50.966;7.094;2023-05-07T08:56:32;1.95;;;1.40;;
11988;SDS011;6054;50.966;7.094;2023-05-07T08:58:59;3.00;;;1.20;;
11988;SDS011;6054;50.966;7.094;2023-05-07T09:01:25;3.13;;;1.58;;
11988;SDS011;6054;50.966;7.094;2023-05-07T09:03:52;1.50;;;1.40;;
11988;SDS011;6054;50.966;7.094;2023-05-07T09:06:21;4.63;;;1.33;;
11988;SDS011;6054;50.966;7.094;2023-05-07T09:08:52;1.55;;;1.40;;
11988;SDS011;6054;50.966;7.094;2023-05-07T09:11:20;2.55;;;1.50;;
11988;SDS011;6054;50.966;7.094;2023-05-07T09:13:47;1.73;;;1.60;;
11988;SDS011;6054;50.966;7.094;2023-05-07T09:16:15;3.13;;;1.58;;
11988;SDS011;6054;50.966;7.094;2023-05-07T09:18:42;2.55;;;1.30;;
11988;SDS011;6054;50.966;7.094;2023-05-07T09:21:10;1.42;;;1.30;;
11988;SDS011;6054;50.966;7.094;2023-05-07T09:23:38;5.13;;;1.85;;
11988;SDS011;6054;50.966;7.094;2023-05-07T09:26:06;3.22;;;1.42;;
11988;SDS011;6054;50.966;7.094;2023-05-07T09:28:37;1.20;;;1.20;;
11988;SDS011;6054;50.966;7.094;2023-05-07T09:31:06;3.83;;;1.40;;
11988;SDS011;6054;50.966;7.094;2023-05-07T09:33:33;2.47;;;1.35;;
11988;SDS011;6054;50.966;7.094;2023-05-07T09:36:02;4.30;;;1.30;;
11988;SDS011;6054;50.966;7.094;2023-05-07T09:38:32;3.13;;;1.48;;
11988;SDS011;6054;50.966;7.094;2023-05-07T09:41:05;2.55;;;1.30;;
11988;SDS011;6054;50.966;7.094;2023-05-07T09:43:40;2.40;;;1.85;;
11988;SDS011;6054;50.966;7.094;2023-05-07T09:46:13;2.10;;;1.27;;
11988;SDS011;6054;50.966;7.094;2023-05-07T09:48:41;2.00;;;1.10;;
11988;SDS011;6054;50.966;7.094;2023-05-07T09:51:15;1.40;;;1.30;;
11988;SDS011;6054;50.966;7.094;2023-05-07T09:53:48;1.95;;;1.33;;
11988;SDS011;6054;50.966;7.094;2023-05-07T09:56:23;1.50;;;1.40;;
11988;SDS011;6054;50.966;7.094;2023-05-07T09:58:52;1.35;;;1.25;;
11988;SDS011;6054;50.966;7.094;2023-05-07T10:01:20;1.45;;;1.30;;
11988;SDS011;6054;50.966;7.094;2023-05-07T10:03:47;1.85;;;1.30;;
11988;SDS011;6054;50.966;7.094;2023-05-07T10:06:16;1.38;;;1.30;;
11988;SDS011;6054;50.966;7.094;2023-05-07T10:08:43;1.05;;;0.95;;
11988;SDS011;6054;50.966;7.094;2023-05-07T10:11:10;3.00;;;1.20;;
11988;SDS011;6054;50.966;7.094;2023-05-07T10:13:39;1.42;;;1.20;;
11988;SDS011;6054;50.966;7.094;2023-05-07T10:16:07;4.80;;;1.27;;
11988;SDS011;6054;50.966;7.094;2023-05-07T10:18:34;4.43;;;1.17;;
11988;SDS011;6054;50.966;7.094;2023-05-07T10:21:04;1.98;;;1.15;;
11988;SDS011;6054;50.966;7.094;2023-05-07T10:23:34;3.22;;;1.23;;
11988;SDS011;6054;50.966;7.094;2023-05-07T10:26:03;1.85;;;1.17;;
11988;SDS011;6054;50.966;7.094;2023-05-07T10:28:33;2.85;;;1.35;;
11988;SDS011;6054;50.966;7.094;2023-05-07T10:31:08;3.60;;;1.15;;
11988;SDS011;6054;50.966;7.094;2023-05-07T10:33:41;1.63;;;1.30;;
11988;SDS011;6054;50.966;7.094;2023-05-07T10:36:10;1.40;;;1.30;;
11988;SDS011;6054;50.966;7.094;2023-05-07T10:38:37;1.73;;;1.02;;
11988;SDS011;6054;50.966;7.094;2023-05-07T10:41:05;1.50;;;1.15;;
11988;SDS011;6054;50.966;7.094;2023-05-07T10:43:39;2.53;;;1.17;;
11988;SDS011;6054;50.966;7.094;2023-05-07T10:46:13;2.08;;;1.10;;
11988;SDS011;6054;50.966;7.094;2023-05-07T10:51:39;2.20;;;1.33;;
11988;SDS011;6054;50.966;7.094;2023-05-07T10:54:18;2.05;;;1.23;;
11988;SDS011;6054;50.966;7.094;2023-05-07T10:56:49;1.30;;;1.20;;
11988;SDS011;6054;50.966;7.094;2023-05-07T10:59:33;2.28;;;1.23;;
11988;SDS011;6054;50.966;7.094;2023-05-07T11:02:09;2.20;;;1.05;;
11988;SDS011;6054;50.966;7.094;2023-05-07T11:04:39;1.30;;;1.20;;
11988;SDS011;6054;50.966;7.094;2023-05-07T11:10:01;1.30;;;1.20;;
11988;SDS011;6054;50.966;7.094;2023-05-07T11:12:49;2.08;;;1.35;;
11988;SDS011;6054;50.966;7.094;2023-05-07T11:15:35;2.83;;;1.27;;
11988;SDS011;6054;50.966;7.094;2023-05-07T11:18:05;1.10;;;1.10;;
11988;SDS011;6054;50.966;7.094;2023-05-07T11:20:44;3.33;;;1.30;;
11988;SDS011;6054;50.966;7.094;2023-05-07T11:26:16;1.25;;;1.20;;
11988;SDS011;6054;50.966;7.094;2023-05-07T11:28:46;1.33;;;1.23;;
11988;SDS011;6054;50.966;7.094;2023-05-07T11:31:14;1.58;;;1.30;;
11988;SDS011;6054;50.966;7.094;2023-05-07T11:33:49;3.05;;;1.50;;
11988;SDS011;6054;50.966;7.094;2023-05-07T11:36:16;1.50;;;1.40;;
11988;SDS011;6054;50.966;7.094;2023-05-07T11:38:45;1.58;;;1.38;;
11988;SDS011;6054;50.966;7.094;2023-05-07T11:41:12;2.47;;;1.40;;
11988;SDS011;6054;50.966;7.094;2023-05-07T11:43:53;1.20;;;1.10;;
11988;SDS011;6054;50.966;7.094;2023-05-07T11:46:24;2.83;;;1.10;;
11988;SDS011;6054;50.966;7.094;2023-05-07T11:48:53;1.98;;;1.33;;
11988;SDS011;6054;50.966;7.094;2023-05-07T11:51:21;2.13;;;1.67;;
11988;SDS011;6054;50.966;7.094;2023-05-07T11:53:50;1.50;;;1.20;;
11988;SDS011;6054;50.966;7.094;2023-05-07T11:56:18;1.10;;;1.10;;
11988;SDS011;6054;50.966;7.094;2023-05-07T11:58:45;2.13;;;1.40;;
11988;SDS011;6054;50.966;7.094;2023-05-07T12:01:13;2.38;;;1.25;;
11988;SDS011;6054;50.966;7.094;2023-05-07T12:03:41;1.50;;;1.40;;
11988;SDS011;6054;50.966;7.094;2023-05-07T12:06:12;1.38;;;1.30;;
11988;SDS011;6054;50.966;7.094;2023-05-07T12:08:40;2.25;;;1.20;;
11988;SDS011;6054;50.966;7.094;2023-05-07T12:11:08;2.90;;;1.40;;
11988;SDS011;6054;50.966;7.094;2023-05-07T12:13:36;1.40;;;1.30;;
11988;SDS011;6054;50.966;7.094;2023-05-07T12:16:03;3.10;;;1.50;;
11988;SDS011;6054;50.966;7.094;2023-05-07T12:18:31;2.45;;;1.30;;
11988;SDS011;6054;50.966;7.094;2023-05-07T12:20:59;1.23;;;1.13;;
11988;SDS011;6054;50.966;7.094;2023-05-07T12:23:27;2.35;;;1.35;;
11988;SDS011;6054;50.966;7.094;2023-05-07T12:25:54;1.40;;;1.30;;
11988;SDS011;6054;50.966;7.094;2023-05-07T12:28:21;1.88;;;1.20;;
11988;SDS011;6054;50.966;7.094;2023-05-07T12:30:48;2.13;;;1.20;;
11988;SDS011;6054;50.966;7.094;2023-05-07T12:33:16;2.28;;;1.55;;
11988;SDS011;6054;50.966;7.094;2023-05-07T12:35:46;1.60;;;1.50;;
11988;SDS011;6054;50.966;7.094;2023-05-07T12:38:16;1.35;;;1.10;;
11988;SDS011;6054;50.966;7.094;2023-05-07T12:40:46;1.40;;;1.30;;
11988;SDS011;6054;50.966;7.094;2023-05-07T12:43:16;2.25;;;1.30;;
11988;SDS011;6054;50.966;7.094;2023-05-07T12:45:43;1.42;;;1.20;;
11988;SDS011;6054;50.966;7.094;2023-05-07T12:48:10;1.30;;;1.20;;
11988;SDS011;6054;50.966;7.094;2023-05-07T12:50:37;3.05;;;1.40;;
11988;SDS011;6054;50.966;7.094;2023-05-07T12:53:05;1.30;;;1.20;;
11988;SDS011;6054;50.966;7.094;2023-05-07T12:55:34;1.67;;;1.27;;
11988;SDS011;6054;50.966;7.094;2023-05-07T12:58:08;1.92;;;1.30;;
11988;SDS011;6054;50.966;7.094;2023-05-07T13:00:41;1.45;;;1.30;;
11988;SDS011;6054;50.966;7.094;2023-05-07T13:03:09;5.18;;;2.40;;
11988;SDS011;6054;50.966;7.094;2023-05-07T13:05:36;2.85;;;1.40;;
11988;SDS011;6054;50.966;7.094;2023-05-07T13:08:03;4.93;;;1.23;;
11988;SDS011;6054;50.966;7.094;2023-05-07T13:10:30;2.25;;;1.20;;
11988;SDS011;6054;50.966;7.094;2023-05-07T13:12:57;2.25;;;1.30;;
11988;SDS011;6054;50.966;7.094;2023-05-07T13:15:26;3.50;;;1.33;;
11988;SDS011;6054;50.966;7.094;2023-05-07T13:17:53;1.52;;;1.33;;
11988;SDS011;6054;50.966;7.094;2023-05-07T13:20:20;1.23;;;1.10;;
11988;SDS011;6054;50.966;7.094;2023-05-07T13:22:47;3.25;;;1.35;;
11988;SDS011;6054;50.966;7.094;2023-05-07T13:25:13;1.20;;;1.10;;
11988;SDS011;6054;50.966;7.094;2023-05-07T13:27:40;2.65;;;1.30;;
11988;SDS011;6054;50.966;7.094;2023-05-07T13:30:07;1.98;;;1.38;;
11988;SDS011;6054;50.966;7.094;2023-05-07T13:32:35;1.30;;;1.20;;
11988;SDS011;6054;50.966;7.094;2023-05-07T13:35:02;1.88;;;1.30;;
11988;SDS011;6054;50.966;7.094;2023-05-07T13:37:29;2.13;;;1.38;;
11988;SDS011;6054;50.966;7.094;2023-05-07T13:39:56;1.20;;;1.20;;
11988;SDS011;6054;50.966;7.094;2023-05-07T13:42:22;1.35;;;1.35;;
11988;SDS011;6054;50.966;7.094;2023-05-07T13:44:49;1.08;;;1.08;;
11988;SDS011;6054;50.966;7.094;2023-05-07T13:47:16;1.35;;;1.17;;
11988;SDS011;6054;50.966;7.094;2023-05-07T13:49:44;2.83;;;1.42;;
11988;SDS011;6054;50.966;7.094;2023-05-07T13:52:14;1.30;;;1.20;;
11988;SDS011;6054;50.966;7.094;2023-05-07T13:54:41;3.05;;;1.30;;
11988;SDS011;6054;50.966;7.094;2023-05-07T13:57:07;1.88;;;1.27;;
11988;SDS011;6054;50.966;7.094;2023-05-07T13:59:34;1.40;;;1.30;;
11988;SDS011;6054;50.966;7.094;2023-05-07T14:02:01;3.58;;;1.45;;
11988;SDS011;6054;50.966;7.094;2023-05-07T14:04:28;1.60;;;1.38;;
11988;SDS011;6054;50.966;7.094;2023-05-07T14:06:58;2.45;;;1.30;;
11988;SDS011;6054;50.966;7.094;2023-05-07T14:09:25;3.25;;;1.50;;
11988;SDS011;6054;50.966;7.094;2023-05-07T14:11:51;1.70;;;1.38;;
11988;SDS011;6054;50.966;7.094;2023-05-07T14:14:18;9.88;;;2.35;;
11988;SDS011;6054;50.966;7.094;2023-05-07T14:16:45;6.60;;;2.55;;
11988;SDS011;6054;50.966;7.094;2023-05-07T14:19:12;8.68;;;3.63;;
11988;SDS011;6054;50.966;7.094;2023-05-07T14:21:39;9.52;;;3.35;;
11988;SDS011;6054;50.966;7.094;2023-05-07T14:24:07;14.57;;;4.03;;
11988;SDS011;6054;50.966;7.094;2023-05-07T14:26:34;7.93;;;3.03;;
11988;SDS011;6054;50.966;7.094;2023-05-07T14:29:01;6.40;;;3.28;;
11988;SDS011;6054;50.966;7.094;2023-05-07T14:31:28;12.18;;;3.78;;
11988;SDS011;6054;50.966;7.094;2023-05-07T14:33:55;10.93;;;3.80;;
11988;SDS011;6054;50.966;7.094;2023-05-07T14:36:22;7.50;;;3.80;;
11988;SDS011;6054;50.966;7.094;2023-05-07T14:38:51;8.25;;;3.95;;
11988;SDS011;6054;50.966;7.094;2023-05-07T14:41:19;4.25;;;2.92;;
11988;SDS011;6054;50.966;7.094;2023-05-07T14:43:46;6.57;;;3.45;;
11988;SDS011;6054;50.966;7.094;2023-05-07T14:46:15;6.75;;;3.03;;
11988;SDS011;6054;50.966;7.094;2023-05-07T14:48:42;7.18;;;3.17;;
11988;SDS011;6054;50.966;7.094;2023-05-07T14:51:10;7.25;;;2.65;;
11988;SDS011;6054;50.966;7.094;2023-05-07T14:53:37;5.15;;;2.72;;
11988;SDS011;6054;50.966;7.094;2023-05-07T14:56:04;4.43;;;2.60;;
11988;SDS011;6054;50.966;7.094;2023-05-07T14:58:32;3.28;;;2.10;;
11988;SDS011;6054;50.966;7.094;2023-05-07T15:00:59;2.25;;;1.85;;
11988;SDS011;6054;50.966;7.094;2023-05-07T15:03:26;1.88;;;1.60;;
11988;SDS011;6054;50.966;7.094;2023-05-07T15:05:53;3.65;;;1.33;;
11988;SDS011;6054;50.966;7.094;2023-05-07T15:08:20;1.90;;;1.17;;
11988;SDS011;6054;50.966;7.094;2023-05-07T15:10:47;3.33;;;1.40;;
11988;SDS011;6054;50.966;7.094;2023-05-07T15:13:13;3.28;;;1.50;;